CST,Max TemperatureF,Mean TemperatureF,Min TemperatureF,Max Dew PointF,MeanDew PointF,Min DewpointF,Max Humidity, Mean Humidity, Min Humidity, Max Sea Level PressureIn, Mean Sea Level PressureIn, Min Sea Level PressureIn, Max VisibilityMiles, Mean VisibilityMiles, Min VisibilityMiles, Max Wind SpeedMPH, Mean Wind SpeedMPH, Max Gust SpeedMPH,PrecipitationIn, CloudCover, Events, WindDirDegrees
2013-12-1,55,36,17,30,24,15,92,65,38,30.19,30.04,29.79,10,10,10,10,2,13,0.00,2,,293
2013-12-2,61,43,25,33,28,23,92,64,35,29.77,29.65,29.53,10,10,10,17,4,22,0.00,0,,287
2013-12-3,33,26,18,30,23,10,100,86,71,29.87,29.67,29.52,10,8,0,25,10,36,T,6,Fog,20
2013-12-4,18,12,6,11,3,-3,80,67,53,30.31,29.97,29.76,10,8,2,30,20,38,T,6,Rain-Snow,331
2013-12-5,15,7,-2,-4,-7,-9,79,60,40,30.51,30.41,30.30,10,10,10,17,8,23,0.00,3,,348
2013-12-6,12,4,-5,-7,-10,-12,75,58,41,30.72,30.62,30.51,10,10,10,10,4,14,0.00,1,,27
2013-12-7,8,1,-7,3,-4,-12,83,72,60,30.70,30.42,30.15,10,6,1,17,10,22,0.06,6,Snow,131
2013-12-8,14,4,-7,7,2,-13,88,79,69,30.32,30.09,29.90,10,6,1,18,7,23,T,7,Snow,262
2013-12-9,24,8,-8,8,-1,-12,83,65,47,30.41,30.28,30.17,10,10,10,21,9,25,0.00,1,,260
2013-12-10,39,22,4,20,12,1,87,61,35,30.40,30.20,30.07,10,10,10,21,8,26,0.00,3,,293
2013-12-11,30,16,2,16,11,-1,88,71,53,30.63,30.49,30.38,10,10,4,20,6,24,T,3,Snow,194
2013-12-12,52,30,7,21,13,4,92,57,22,30.43,30.28,30.04,10,10,10,14,5,17,0.00,0,,246
2013-12-13,49,30,10,24,16,7,92,63,34,30.20,30.00,29.87,10,10,7,22,6,26,0.00,1,,335
2013-12-14,48,30,11,26,18,10,92,65,37,30.29,30.23,30.15,10,10,7,17,6,22,0.00,2,,310
2013-12-15,56,41,25,24,22,19,81,54,27,30.12,30.06,29.99,10,10,10,25,10,30,0.00,3,,286
2013-12-16,57,39,20,27,21,17,84,54,24,30.25,30.12,30.01,10,10,2,13,6,15,0.00,0,,294
2013-12-17,50,33,15,24,19,15,92,63,33,30.43,30.25,30.04,10,10,10,16,6,22,0.00,0,,248
2013-12-18,68,44,20,25,20,15,84,51,18,30.01,29.84,29.71,10,10,10,16,5,20,0.00,0,,301
2013-12-19,33,22,10,25,18,3,92,82,72,30.07,29.85,29.71,10,8,3,22,12,29,T,5,Snow,34
2013-12-20,23,16,9,9,5,2,83,69,54,30.09,29.99,29.81,10,10,10,20,6,28,0.00,6,,307
2013-12-21,36,20,4,17,10,1,88,66,44,29.99,29.85,29.77,10,10,10,20,5,28,0.00,2,,49
2013-12-22,32,18,4,16,11,2,91,69,47,30.45,30.21,30.01,10,7,1,17,7,23,0.09,6,Snow,5
2013-12-23,17,8,-2,9,4,-3,88,75,61,30.60,30.46,30.29,10,9,2,14,7,17,0.01,7,Snow,110
2013-12-24,41,23,5,33,19,3,96,83,69,30.37,30.20,29.98,10,10,7,22,7,28,0.00,4,,306
2013-12-25,43,28,12,25,17,10,92,66,39,30.45,30.38,30.29,10,10,10,18,7,23,0.00,0,,313
2013-12-26,54,33,12,24,17,9,88,57,26,30.34,30.26,30.19,10,10,2,16,6,21,0.00,0,,303
2013-12-27,58,37,15,26,20,12,92,60,28,30.31,30.22,30.08,10,10,10,16,4,18,0.00,0,,273
2013-12-28,59,36,12,27,17,2,92,61,30,30.33,30.04,29.84,10,10,10,33,12,44,T,2,,330
2013-12-29,23,13,2,7,2,-2,87,66,45,30.51,30.35,30.13,10,10,10,26,8,35,0.00,1,,319
2013-12-30,49,32,14,26,17,7,84,59,34,30.30,30.17,30.06,10,10,10,31,8,41,0.00,2,,303
2013-12-31,55,36,16,24,19,13,88,58,27,30.21,30.06,29.96,10,10,10,21,6,24,0.00,0,,62